Terminal Aerodrome Forecast
Issued by NWS

Home | Current Version | Previous Version | Text Only | Print | Product List | Glossary Off
Versions: 1 2 3 4 5 6 7 8 9 10 11 12 13 14

000
FTUS43 KICT 040520
TAFCNU
TAF
KCNU 040520Z 0406/0506 07005KT P6SM BKN050
     FM041400 10008KT P6SM SCT040
     FM041900 14008KT P6SM SCT040
     FM050200 12005KT P6SM BKN040=

USA.gov is the U.S. government's official web portal to all federal, state and local government web resources and services.